Time;durP1;ratioP1;P1;durP2;ratioP2;P2;SDS_P1;SDS_P2;PMS_P1;PMS_P2;Temp;Humidity;BMP_temperature;BMP_pressure;BME280_temperature;BME280_humidity;BME280_pressure;Samples;Min_cycle;Max_cycle;Signal;HPM_P1;HPM_P2
2022/07/07 00:00:47;;;;;;;5.20;4.78;;;;;;;-141.48;100.00;69781.59;4969661;29;20041;-61
2022/07/07 00:04:16;;;;;;;3.92;3.72;;;;;;;-141.48;100.00;69781.59;4969620;29;20035;-62
2022/07/07 00:07:45;;;;;;;3.28;3.08;;;;;;;-141.48;100.00;69781.59;4969735;29;20140;-59
2022/07/07 00:11:15;;;;;;;5.05;4.55;;;;;;;-141.48;100.00;69781.59;4969586;29;20450;-62
2022/07/07 00:14:44;;;;;;;4.07;3.88;;;;;;;-141.48;100.00;69781.59;4966982;29;20030;-61
2022/07/07 00:18:13;;;;;;;4.82;4.57;;;;;;;-141.48;100.00;69781.59;4953280;29;20031;-61
2022/07/07 00:21:42;;;;;;;4.30;4.05;;;;;;;-141.48;100.00;69781.59;4968590;29;20033;-60
2022/07/07 00:25:11;;;;;;;4.05;3.65;;;;;;;-141.48;100.00;69781.59;4969573;29;20415;-64
2022/07/07 00:28:40;;;;;;;4.80;4.53;;;;;;;-141.48;100.00;69781.59;4969422;29;20027;-61
2022/07/07 00:32:09;;;;;;;4.22;3.95;;;;;;;-141.48;100.00;69781.59;4968354;29;20288;-59
2022/07/07 00:35:38;;;;;;;4.47;4.25;;;;;;;-141.48;100.00;69781.59;4951546;29;20027;-60
2022/07/07 00:39:07;;;;;;;6.13;4.30;;;;;;;-141.48;100.00;69781.59;4968597;29;20083;-61
2022/07/07 00:42:36;;;;;;;4.45;4.25;;;;;;;-141.48;100.00;69781.59;4967982;29;20742;-63
2022/07/07 00:46:06;;;;;;;3.72;3.50;;;;;;;-141.48;100.00;69781.59;4968132;29;20385;-59
2022/07/07 00:49:38;;;;;;;3.80;3.60;;;;;;;-141.48;100.00;69781.59;4968486;29;20462;-61
2022/07/07 00:53:09;;;;;;;4.82;4.53;;;;;;;-141.48;100.00;69781.59;4968186;29;20528;-59
2022/07/07 00:56:38;;;;;;;4.88;4.55;;;;;;;-141.48;100.00;69781.59;4967779;29;20122;-61
2022/07/07 01:00:09;;;;;;;7.45;5.25;;;;;;;-141.48;100.00;69781.59;4968091;29;20027;-62
2022/07/07 01:03:40;;;;;;;4.00;3.80;;;;;;;-141.48;100.00;69781.59;4951854;29;20408;-61
2022/07/07 01:07:10;;;;;;;4.00;3.80;;;;;;;-141.48;100.00;69781.59;4951461;29;20101;-61
2022/07/07 01:10:44;;;;;;;3.45;3.33;;;;;;;-141.48;100.00;69781.59;4968272;29;20019;-59
2022/07/07 01:14:13;;;;;;;4.13;3.72;;;;;;;-141.48;100.00;69781.59;4967092;29;20478;-59
2022/07/07 01:17:43;;;;;;;4.13;3.83;;;;;;;-141.48;100.00;69781.59;4936827;29;20053;-61
2022/07/07 01:21:15;;;;;;;4.40;4.20;;;;;;;-141.48;100.00;69781.59;4967714;29;20099;-62
2022/07/07 01:24:44;;;;;;;3.78;3.63;;;;;;;-141.48;100.00;69781.59;4967233;29;20403;-61
2022/07/07 01:28:15;;;;;;;3.97;3.77;;;;;;;-141.48;100.00;69781.59;4967838;29;20027;-60
2022/07/07 01:31:44;;;;;;;4.07;3.88;;;;;;;-141.48;100.00;69781.59;4928395;29;1212284;-61
2022/07/07 01:35:13;;;;;;;6.68;4.60;;;;;;;-141.48;100.00;69781.59;4968005;29;20118;-64
2022/07/07 01:38:41;;;;;;;7.47;4.13;;;;;;;-141.48;100.00;69781.59;4968260;29;20034;-61
2022/07/07 01:42:11;;;;;;;4.63;4.33;;;;;;;-141.48;100.00;69781.59;4968414;29;20268;-61
2022/07/07 01:45:40;;;;;;;4.47;4.18;;;;;;;-141.48;100.00;69781.59;4968090;29;20276;-59
2022/07/07 01:49:10;;;;;;;;;;;;;;;-141.48;100.00;69781.59;4960953;29;20107;-63
2022/07/07 01:52:39;;;;;;;3.63;3.38;;;;;;;-141.48;100.00;69781.59;4968599;29;19913;-60
2022/07/07 01:56:08;;;;;;;5.05;4.78;;;;;;;-141.48;100.00;69781.59;4967568;29;20030;-63
2022/07/07 01:59:37;;;;;;;5.22;4.50;;;;;;;-141.48;100.00;69781.59;4968062;29;20434;-61
2022/07/07 02:03:06;;;;;;;4.43;3.92;;;;;;;-141.48;100.00;69781.59;4968072;29;20039;-61
2022/07/07 02:06:37;;;;;;;4.90;4.47;;;;;;;-141.48;100.00;69781.59;4967593;29;20030;-58
2022/07/07 02:10:07;;;;;;;5.75;5.28;;;;;;;-141.48;100.00;69781.59;4967853;29;20027;-64
2022/07/07 02:13:36;;;;;;;4.13;3.92;;;;;;;-141.48;100.00;69781.59;4968042;29;20150;-60
2022/07/07 02:17:05;;;;;;;3.30;3.10;;;;;;;-141.48;100.00;69781.59;4968045;29;20252;-58
2022/07/07 02:20:34;;;;;;;5.32;5.03;;;;;;;-141.48;100.00;69781.59;4967361;29;20399;-58
2022/07/07 02:24:03;;;;;;;7.03;4.95;;;;;;;-141.48;100.00;69781.59;4968077;29;20423;-60
2022/07/07 02:27:32;;;;;;;5.38;4.72;;;;;;;-141.48;100.00;69781.59;4971311;29;20038;-61
2022/07/07 02:31:01;;;;;;;4.03;3.72;;;;;;;-141.48;100.00;69781.59;4970616;29;20034;-61
2022/07/07 02:34:30;;;;;;;6.35;5.10;;;;;;;-141.48;100.00;69781.59;4970649;29;20039;-62
2022/07/07 02:37:59;;;;;;;10.90;4.70;;;;;;;-141.48;100.00;69781.59;4971870;29;20027;-58
2022/07/07 02:41:28;;;;;;;5.45;4.30;;;;;;;-141.48;100.00;69781.59;4970573;29;20034;-59
2022/07/07 02:44:57;;;;;;;3.97;3.78;;;;;;;-141.48;100.00;69781.59;4970631;29;20466;-61
2022/07/07 02:48:26;;;;;;;9.13;5.15;;;;;;;-141.48;100.00;69781.59;4970921;29;20030;-61
2022/07/07 02:51:55;;;;;;;5.40;5.07;;;;;;;-141.48;100.00;69781.59;4970000;29;20106;-63
2022/07/07 02:55:24;;;;;;;5.90;5.53;;;;;;;-141.48;100.00;69781.59;4970182;29;20380;-61
2022/07/07 02:58:53;;;;;;;;;;;;;;;-141.48;100.00;69781.59;4971190;29;20019;-63
2022/07/07 03:02:22;;;;;;;19.48;4.93;;;;;;;-141.48;100.00;69781.59;4970463;29;19994;-61
2022/07/07 03:05:51;;;;;;;5.37;4.67;;;;;;;-141.48;100.00;69781.59;4954153;29;20034;-60
2022/07/07 03:09:20;;;;;;;5.32;4.93;;;;;;;-141.48;100.00;69781.59;4970690;29;20453;-61
2022/07/07 03:12:49;;;;;;;4.38;4.07;;;;;;;-141.48;100.00;69781.59;4954418;29;20082;-58
2022/07/07 03:16:19;;;;;;;5.32;5.00;;;;;;;-141.48;100.00;69781.59;4953508;29;20451;-62
2022/07/07 03:19:47;;;;;;;4.80;4.40;;;;;;;-141.48;100.00;69781.59;4970383;29;20038;-59
2022/07/07 03:23:16;;;;;;;7.07;5.00;;;;;;;-141.48;100.00;69781.59;4954258;29;20045;-62
2022/07/07 03:26:45;;;;;;;4.75;4.40;;;;;;;-141.48;100.00;69781.59;4970253;29;20062;-59
2022/07/07 03:30:14;;;;;;;5.37;4.93;;;;;;;-141.48;100.00;69781.59;4954247;29;20402;-58
2022/07/07 03:33:43;;;;;;;4.93;4.53;;;;;;;-141.48;100.00;69781.59;4970248;29;20038;-63
2022/07/07 03:37:12;;;;;;;5.57;5.23;;;;;;;-141.48;100.00;69781.59;4969606;29;20117;-62
2022/07/07 03:40:41;;;;;;;4.53;4.20;;;;;;;-141.48;100.00;69781.59;4970408;29;20108;-61
2022/07/07 03:44:10;;;;;;;3.87;3.67;;;;;;;-141.48;100.00;69781.59;4970334;29;20361;-65
2022/07/07 03:47:39;;;;;;;5.57;3.97;;;;;;;-141.48;100.00;69781.59;4970366;29;20321;-62
2022/07/07 03:51:08;;;;;;;3.55;3.28;;;;;;;-141.48;100.00;69781.59;4970400;29;20034;-60
2022/07/07 03:54:37;;;;;;;3.75;2.45;;;;;;;-141.48;100.00;69781.59;4969271;29;20484;-63
2022/07/07 03:58:06;;;;;;;3.57;3.37;;;;;;;-141.48;100.00;69781.59;4969992;29;20226;-61
2022/07/07 04:01:36;;;;;;;3.33;3.13;;;;;;;-141.48;100.00;69781.59;4969489;29;20114;-61
2022/07/07 04:05:05;;;;;;;;;;;;;;;-141.48;100.00;69781.59;4969402;29;20099;-63
2022/07/07 04:08:34;;;;;;;3.03;2.83;;;;;;;-141.48;100.00;69781.59;4969574;29;20436;-62
2022/07/07 04:12:03;;;;;;;4.10;3.77;;;;;;;-141.48;100.00;69781.59;4969053;29;20034;-58
2022/07/07 04:15:32;;;;;;;3.67;3.05;;;;;;;-141.48;100.00;69781.59;4969140;29;20035;-60
2022/07/07 04:19:01;;;;;;;4.33;4.03;;;;;;;-141.48;100.00;69781.59;4969423;29;20441;-60
2022/07/07 04:22:30;;;;;;;4.63;4.20;;;;;;;-141.48;100.00;69781.59;4969339;29;20287;-63
2022/07/07 04:25:59;;;;;;;4.37;4.10;;;;;;;-141.48;100.00;69781.59;4968999;29;20035;-60
2022/07/07 04:29:28;;;;;;;4.28;3.97;;;;;;;-141.48;100.00;69781.59;4960832;29;20031;-62
2022/07/07 04:32:57;;;;;;;4.97;4.68;;;;;;;-141.48;100.00;69781.59;4961972;29;20111;-82
2022/07/07 04:36:26;;;;;;;12.98;5.07;;;;;;;-141.48;100.00;69781.59;4979122;29;20485;-84
2022/07/07 04:39:55;;;;;;;3.97;3.67;;;;;;;-141.48;100.00;69781.59;4979232;29;20026;-82
2022/07/07 04:43:24;;;;;;;4.18;3.85;;;;;;;-141.48;100.00;69781.59;4979841;29;20088;-83
2022/07/07 04:46:53;;;;;;;4.20;3.93;;;;;;;-141.48;100.00;69781.59;4963494;29;20031;-83
2022/07/07 04:50:21;;;;;;;5.35;4.93;;;;;;;-141.48;100.00;69781.59;4963057;29;20280;-83
2022/07/07 04:53:51;;;;;;;5.13;4.83;;;;;;;-141.48;100.00;69781.59;4979550;29;20038;-84
2022/07/07 04:57:20;;;;;;;4.50;4.15;;;;;;;-141.48;100.00;69781.59;4962176;29;20042;-83
2022/07/07 05:00:49;;;;;;;5.50;5.00;;;;;;;-141.48;100.00;69781.59;4962419;29;20027;-83
2022/07/07 05:04:18;;;;;;;4.00;3.70;;;;;;;-141.48;100.00;69781.59;4977868;29;20085;-84
2022/07/07 05:07:46;;;;;;;3.43;3.13;;;;;;;-141.48;100.00;69781.59;4976261;29;20030;-81
2022/07/07 05:11:15;;;;;;;4.00;3.83;;;;;;;-141.48;100.00;69781.59;4960930;29;20299;-80
2022/07/07 05:14:44;;;;;;;3.90;2.93;;;;;;;-141.48;100.00;69781.59;4977275;29;20109;-81
2022/07/07 05:18:14;;;;;;;4.13;3.93;;;;;;;-141.48;100.00;69781.59;4960791;29;20284;-80
2022/07/07 05:21:43;;;;;;;15.07;4.53;;;;;;;-141.48;100.00;69781.59;4977354;29;20053;-80
2022/07/07 05:25:12;;;;;;;3.37;2.97;;;;;;;-141.48;100.00;69781.59;4979350;29;20063;-80
2022/07/07 05:28:41;;;;;;;7.50;3.83;;;;;;;-141.48;100.00;69781.59;4979356;29;20026;-82
2022/07/07 05:32:11;;;;;;;2.80;2.60;;;;;;;-141.48;100.00;69781.59;4962698;29;20318;-80
2022/07/07 05:35:40;;;;;;;9.90;3.88;;;;;;;-141.48;100.00;69781.59;4980348;29;20031;-81
2022/07/07 05:39:13;;;;;;;6.18;3.03;;;;;;;-141.48;100.00;69781.59;4979323;29;20034;-81
2022/07/07 05:42:41;;;;;;;3.75;1.88;;;;;;;-141.48;100.00;69781.59;4957755;29;20035;-80
2022/07/07 05:46:11;;;;;;;2.40;2.20;;;;;;;-141.48;100.00;69781.59;4945778;30;20031;-80
2022/07/07 05:49:39;;;;;;;1.92;1.92;;;;;;;-141.48;100.00;69781.59;4959069;30;20083;-84
2022/07/07 05:53:08;;;;;;;3.70;2.33;;;;;;;-141.48;100.00;69781.59;4959774;30;20038;-81
2022/07/07 05:56:38;;;;;;;2.53;2.43;;;;;;;-141.48;100.00;69781.59;4959095;29;20090;-83
2022/07/07 06:00:07;;;;;;;2.30;2.17;;;;;;;-141.48;100.00;69781.59;4963007;29;20273;-85
2022/07/07 06:03:36;;;;;;;6.20;2.60;;;;;;;-141.48;100.00;69781.59;4948979;30;20035;-82
2022/07/07 06:07:05;;;;;;;2.50;2.40;;;;;;;-141.48;100.00;69781.59;4965170;30;20092;-83
2022/07/07 06:10:34;;;;;;;2.57;2.47;;;;;;;-141.48;100.00;69781.59;4964019;30;20341;-83
2022/07/07 06:14:04;;;;;;;3.65;3.33;;;;;;;-141.48;100.00;69781.59;4965315;30;20338;-84
2022/07/07 06:17:33;;;;;;;3.13;2.17;;;;;;;-141.48;100.00;69781.59;4949175;30;20469;-83
2022/07/07 06:21:02;;;;;;;5.38;3.35;;;;;;;-141.48;100.00;69781.59;4948324;30;20110;-81
2022/07/07 06:24:31;;;;;;;3.42;2.75;;;;;;;-141.48;100.00;69781.59;4964429;30;20042;-81
2022/07/07 06:28:00;;;;;;;3.38;3.17;;;;;;;-141.48;100.00;69781.59;4964145;30;20120;-82
2022/07/07 06:31:29;;;;;;;3.05;2.83;;;;;;;-141.48;100.00;69781.59;4962691;30;20047;-84
2022/07/07 06:34:58;;;;;;;2.63;2.53;;;;;;;-141.48;100.00;69781.59;4962915;30;20023;-82
2022/07/07 06:38:27;;;;;;;5.38;2.95;;;;;;;-141.48;100.00;69781.59;4962991;30;20042;-83
2022/07/07 06:41:56;;;;;;;3.27;2.70;;;;;;;-141.48;100.00;69781.59;4963421;30;20035;-83
2022/07/07 06:45:25;;;;;;;7.32;3.08;;;;;;;-141.48;100.00;69781.59;4947149;30;20031;-82
2022/07/07 06:48:54;;;;;;;3.85;3.30;;;;;;;-141.48;100.00;69781.59;4961362;29;20035;-82
2022/07/07 06:52:23;;;;;;;4.07;2.95;;;;;;;-141.48;100.00;69781.59;4963122;30;20083;-82
2022/07/07 06:55:52;;;;;;;8.27;3.05;;;;;;;-141.48;100.00;69781.59;4946908;30;20019;-83
2022/07/07 06:59:21;;;;;;;4.05;3.80;;;;;;;-141.48;100.00;69781.59;4964018;30;20452;-83
2022/07/07 07:02:50;;;;;;;7.13;4.10;;;;;;;-141.48;100.00;69781.59;4965544;30;20035;-83
2022/07/07 07:06:20;;;;;;;7.40;4.00;;;;;;;-141.48;100.00;69781.59;4964435;30;20042;-83
2022/07/07 07:09:48;;;;;;;5.65;3.92;;;;;;;-141.48;100.00;69781.59;4947835;30;20031;-84
2022/07/07 07:13:17;;;;;;;11.38;3.83;;;;;;;-141.48;100.00;69781.59;4963474;30;20098;-83
2022/07/07 07:16:46;;;;;;;2.88;2.67;;;;;;;-141.48;100.00;69781.59;4965190;30;20100;-84
2022/07/07 07:20:15;;;;;;;4.30;4.00;;;;;;;-141.48;100.00;69781.59;4960314;30;20042;-88
2022/07/07 07:23:44;;;;;;;9.65;4.05;;;;;;;-141.48;100.00;69781.59;4960649;30;20051;-86
2022/07/07 07:27:13;;;;;;;7.77;4.60;;;;;;;-141.48;100.00;69781.59;4961146;30;20031;-85
2022/07/07 07:29:44;;;;;;;14.32;6.05;;;;;;;-141.48;100.00;69781.59;4960695;30;20281;-85
2022/07/07 07:32:14;;;;;;;9.90;5.40;;;;;;;-141.48;100.00;69781.59;4964231;30;20034;-83
2022/07/07 07:34:44;;;;;;;10.63;4.45;;;;;;;-141.48;100.00;69781.59;4965667;30;20431;-82
2022/07/07 07:37:15;;;;;;;5.95;3.78;;;;;;;-141.48;100.00;69781.59;4966369;30;20031;-83
2022/07/07 07:39:45;;;;;;;6.00;3.22;;;;;;;-141.48;100.00;69781.59;4949560;29;20042;-84
2022/07/07 07:42:16;;;;;;;3.85;3.55;;;;;;;-141.48;100.00;69781.59;4947293;30;20430;-85
2022/07/07 07:47:36;;;;;;;2.92;2.72;;;;;;;-141.48;100.00;69781.59;4963835;30;20042;-85
2022/07/07 07:50:12;;;;;;;6.65;3.00;;;;;;;-141.48;100.00;69781.59;4965434;30;20043;-79
2022/07/07 07:52:43;;;;;;;5.57;2.67;;;;;;;-141.48;100.00;69781.59;4952260;30;20027;-82
2022/07/07 07:55:16;;;;;;;3.70;3.03;;;;;;;-141.48;100.00;69781.59;4967927;30;20039;-82
2022/07/07 07:57:47;;;;;;;6.80;3.25;;;;;;;-141.48;100.00;69781.59;4966939;30;20035;-82
2022/07/07 08:00:20;;;;;;;3.60;3.25;;;;;;;-141.48;100.00;69781.59;4948904;30;20081;-81
2022/07/07 08:02:51;;;;;;;14.30;3.72;;;;;;;-141.48;100.00;69781.59;4964906;30;20035;-82
2022/07/07 08:05:23;;;;;;;2.53;2.42;;;;;;;-141.48;100.00;69781.59;4963606;29;20038;-80
2022/07/07 08:07:53;;;;;;;5.57;3.40;;;;;;;-141.48;100.00;69781.59;4965403;30;20027;-79
2022/07/07 08:10:24;;;;;;;3.78;2.28;;;;;;;-141.48;100.00;69781.59;4966174;30;20038;-82
2022/07/07 08:12:55;;;;;;;4.38;4.07;;;;;;;-141.48;100.00;69781.59;4947667;30;20023;-80
2022/07/07 08:16:24;;;;;;;7.32;3.92;;;;;;;-141.48;100.00;69781.59;4963746;30;20599;-83
2022/07/07 08:19:53;;;;;;;4.63;4.30;;;;;;;-141.48;100.00;69781.59;4970608;29;20030;-80
2022/07/07 08:23:22;;;;;;;3.17;3.07;;;;;;;-141.48;100.00;69781.59;4969888;29;20042;-81
2022/07/07 08:26:51;;;;;;;2.77;2.67;;;;;;;-141.48;100.00;69781.59;4984128;29;20299;-79
2022/07/07 08:30:20;;;;;;;3.57;3.27;;;;;;;-141.48;100.00;69781.59;4985523;29;20361;-81
2022/07/07 08:33:49;;;;;;;5.77;2.13;;;;;;;-141.48;100.00;69781.59;4969202;29;20060;-83
2022/07/07 08:36:30;;;;;;;2.92;2.78;;;;;;;-141.48;100.00;69781.59;4986395;29;20288;-82
2022/07/07 08:39:01;;;;;;;2.60;2.30;;;;;;;-141.48;100.00;69781.59;4971173;29;20040;-82
2022/07/07 08:41:32;;;;;;;3.53;3.33;;;;;;;-141.48;100.00;69781.59;4970695;29;20030;-82
2022/07/07 08:44:03;;;;;;;2.42;2.33;;;;;;;-141.48;100.00;69781.59;4986927;29;20037;-81
2022/07/07 08:46:34;;;;;;;2.05;1.95;;;;;;;-141.48;100.00;69781.59;4971109;29;20031;-83
2022/07/07 08:49:04;;;;;;;2.53;2.03;;;;;;;-141.48;100.00;69781.59;4988676;29;20042;-83
2022/07/07 08:51:39;;;;;;;2.13;1.98;;;;;;;-141.48;100.00;69781.59;4984647;29;20031;-84
2022/07/07 08:54:12;;;;;;;3.20;2.90;;;;;;;-141.48;100.00;69781.59;4968179;29;20126;-84
2022/07/07 08:56:43;;;;;;;2.60;2.50;;;;;;;-141.48;100.00;69781.59;4985303;29;20429;-83
2022/07/07 08:59:14;;;;;;;3.13;2.80;;;;;;;-141.48;100.00;69781.59;4988745;29;20026;-84
2022/07/07 09:02:01;;;;;;;3.33;2.92;;;;;;;-141.48;100.00;69781.59;4989065;29;20065;-82
2022/07/07 09:04:31;;;;;;;3.95;2.60;;;;;;;-141.48;100.00;69781.59;4987821;29;20042;-83
2022/07/07 09:07:04;;;;;;;2.65;2.50;;;;;;;-141.48;100.00;69781.59;4971357;29;20035;-82
2022/07/07 09:09:43;;;;;;;3.55;3.22;;;;;;;-141.48;100.00;69781.59;4983622;29;20417;-81
2022/07/07 09:12:16;;;;;;;1.70;1.70;;;;;;;-141.48;100.00;69781.59;4968432;29;20019;-81
2022/07/07 09:14:49;;;;;;;7.00;3.03;;;;;;;-141.48;100.00;69781.59;4984129;29;20033;-82
2022/07/07 09:17:27;;;;;;;1.70;1.70;;;;;;;-141.48;100.00;69781.59;4968346;29;20382;-82
2022/07/07 09:20:05;;;;;;;2.13;2.13;;;;;;;-141.48;100.00;69781.59;4984387;29;20034;-83
2022/07/07 09:22:52;;;;;;;1.50;1.50;;;;;;;-141.48;100.00;69781.59;4983578;29;20280;-81
2022/07/07 09:25:25;;;;;;;2.97;2.42;;;;;;;-141.48;100.00;69781.59;4982547;29;20098;-83
2022/07/07 09:27:58;;;;;;;2.00;1.83;;;;;;;-141.48;100.00;69781.59;4982693;29;20575;-83
2022/07/07 09:30:34;;;;;;;2.50;2.40;;;;;;;-141.48;100.00;69781.59;4982760;29;20101;-82
2022/07/07 09:33:09;;;;;;;5.93;2.47;;;;;;;-141.48;100.00;69781.59;4981893;29;20574;-82
2022/07/07 09:38:33;;;;;;;1.90;1.90;;;;;;;-141.48;100.00;69781.59;4981846;29;20099;-83
2022/07/07 09:41:10;;;;;;;2.20;2.10;;;;;;;-141.48;100.00;69781.59;4982647;29;20093;-82
2022/07/07 09:43:45;;;;;;;2.45;2.15;;;;;;;-141.48;100.00;69781.59;4964252;29;20060;-80
2022/07/07 09:46:29;;;;;;;2.00;1.90;;;;;;;-141.48;100.00;69781.59;4978693;29;20034;-83
2022/07/07 09:49:02;;;;;;;2.15;2.05;;;;;;;-141.48;100.00;69781.59;4978188;29;20050;-81
2022/07/07 09:51:33;;;;;;;3.00;2.90;;;;;;;-141.48;100.00;69781.59;4978899;29;20030;-83
2022/07/07 09:54:10;;;;;;;2.03;1.92;;;;;;;-141.48;100.00;69781.59;4962379;29;20031;-84
2022/07/07 09:56:43;;;;;;;2.10;2.00;;;;;;;-141.48;100.00;69781.59;4962608;29;20031;-82
2022/07/07 09:59:15;;;;;;;1.98;1.90;;;;;;;-141.48;100.00;69781.59;4982693;29;20517;-83
2022/07/07 10:01:47;;;;;;;2.72;1.77;;;;;;;-141.48;100.00;69781.59;4979676;29;20418;-82
2022/07/07 10:04:19;;;;;;;1.85;1.80;;;;;;;-141.48;100.00;69781.59;4964101;29;20039;-85
2022/07/07 10:06:51;;;;;;;2.47;2.38;;;;;;;-141.48;100.00;69781.59;4965724;29;20528;-83
2022/07/07 10:09:25;;;;;;;2.28;2.20;;;;;;;-141.48;100.00;69781.59;4966271;29;20035;-84
2022/07/07 10:11:55;;;;;;;2.20;2.10;;;;;;;-141.48;100.00;69781.59;4975281;29;20027;-81
2022/07/07 10:14:35;;;;;;;4.30;2.78;;;;;;;-141.48;100.00;69781.59;4974972;29;20046;-83
2022/07/07 10:17:06;;;;;;;2.70;2.00;;;;;;;-141.48;100.00;69781.59;4976441;29;20035;-81
2022/07/07 10:19:37;;;;;;;1.83;1.73;;;;;;;-141.48;100.00;69781.59;4991885;29;20082;-80
2022/07/07 10:22:12;;;;;;;1.73;1.73;;;;;;;-141.48;100.00;69781.59;4991779;29;20086;-81
2022/07/07 10:24:43;;;;;;;3.58;2.75;;;;;;;-141.48;100.00;69781.59;4975869;29;20031;-82
2022/07/07 10:27:15;;;;;;;2.97;2.78;;;;;;;-141.48;100.00;69781.59;4973758;29;20030;-83
2022/07/07 10:29:54;;;;;;;3.53;2.08;;;;;;;-141.48;100.00;69781.59;4999135;24;20492;-83
2022/07/07 10:32:40;;;;;;;2.58;2.38;;;;;;;-141.48;100.00;69781.59;4994143;29;20045;-82
2022/07/07 10:35:13;;;;;;;7.07;3.88;;;;;;;-141.48;100.00;69781.59;4992171;29;20106;-82
2022/07/07 10:37:49;;;;;;;3.25;2.97;;;;;;;-141.48;100.00;69781.59;4994378;29;20062;-81
2022/07/07 10:40:21;;;;;;;4.97;3.25;;;;;;;-141.48;100.00;69781.59;4977299;29;20495;-82
2022/07/07 10:43:25;;;;;;;7.72;2.95;;;;;;;-141.48;100.00;69781.59;4993846;29;20057;-83
2022/07/07 10:45:55;;;;;;;5.30;2.30;;;;;;;-141.48;100.00;69781.59;4995971;29;20091;-82
2022/07/07 10:48:42;;;;;;;2.08;1.95;;;;;;;-141.48;100.00;69781.59;4986075;29;20034;-82
2022/07/07 10:51:21;;;;;;;2.08;1.98;;;;;;;-141.48;100.00;69781.59;5007915;29;20026;-81
2022/07/07 10:54:01;;;;;;;3.20;2.33;;;;;;;-141.48;100.00;69781.59;5005450;29;20036;-78
2022/07/07 10:56:53;;;;;;;2.38;2.17;;;;;;;-141.48;100.00;69781.59;4978371;29;20035;-80
2022/07/07 10:59:23;;;;;;;2.35;2.22;;;;;;;-141.48;100.00;69781.59;4994626;29;20041;-83
2022/07/07 11:02:03;;;;;;;3.28;2.97;;;;;;;-141.48;100.00;69781.59;4994943;29;20034;-83
2022/07/07 11:04:43;;;;;;;2.15;1.95;;;;;;;-141.48;100.00;69781.59;4994366;29;20035;-79
2022/07/07 11:07:17;;;;;;;;;;;;;;;-141.48;100.00;69781.59;4980418;29;20053;-82
2022/07/07 11:10:06;;;;;;;2.03;1.92;;;;;;;-141.48;100.00;69781.59;4998093;29;19912;-79
2022/07/07 11:12:43;;;;;;;3.57;3.30;;;;;;;-141.48;100.00;69781.59;5002855;29;20145;-77
2022/07/07 11:15:30;;;;;;;3.55;3.25;;;;;;;-141.48;100.00;69781.59;4994936;29;20291;-77
2022/07/07 11:18:00;;;;;;;3.28;3.00;;;;;;;-141.48;100.00;69781.59;5013367;29;20025;-78
2022/07/07 11:20:31;;;;;;;4.97;3.45;;;;;;;-141.48;100.00;69781.59;4995290;29;20037;-78
2022/07/07 11:23:12;;;;;;;2.88;2.67;;;;;;;-141.48;100.00;69781.59;5009863;29;20041;-79
2022/07/07 11:25:44;;;;;;;3.45;2.33;;;;;;;-141.48;100.00;69781.59;4995375;29;20018;-78
2022/07/07 11:28:15;;;;;;;4.18;2.92;;;;;;;-141.48;100.00;69781.59;5009275;29;20053;-80
2022/07/07 11:30:45;;;;;;;2.67;2.47;;;;;;;-141.48;100.00;69781.59;4992098;29;20030;-80
2022/07/07 11:33:20;;;;;;;2.97;2.78;;;;;;;-141.48;100.00;69781.59;4988642;29;20042;-80
2022/07/07 11:35:51;;;;;;;3.42;3.22;;;;;;;-141.48;100.00;69781.59;4985608;29;20123;-80
2022/07/07 11:38:27;;;;;;;2.95;2.75;;;;;;;-141.48;100.00;69781.59;4970391;29;20042;-80
2022/07/07 11:40:57;;;;;;;6.72;3.85;;;;;;;-141.48;100.00;69781.59;4985932;29;20114;-82
2022/07/07 11:43:28;;;;;;;5.22;3.30;;;;;;;-141.48;100.00;69781.59;4985430;29;20023;-80
2022/07/07 11:45:58;;;;;;;3.80;2.63;;;;;;;-141.48;100.00;69781.59;4986808;29;20096;-81
2022/07/07 11:48:36;;;;;;;2.03;2.03;;;;;;;-141.48;100.00;69781.59;4982979;29;20161;-81
2022/07/07 11:51:07;;;;;;;3.13;2.25;;;;;;;-141.48;100.00;69781.59;4982842;29;20497;-82
2022/07/07 11:53:38;;;;;;;10.15;2.50;;;;;;;-141.48;100.00;69781.59;4996452;29;20030;-81
2022/07/07 11:56:09;;;;;;;10.75;4.18;;;;;;;-141.48;100.00;69781.59;4994850;29;20026;-81
2022/07/07 11:58:54;;;;;;;2.17;1.95;;;;;;;-141.48;100.00;69781.59;4995527;29;20038;-82
2022/07/07 12:01:24;;;;;;;2.50;2.40;;;;;;;-141.48;100.00;69781.59;4959565;29;20027;-80
2022/07/07 12:03:55;;;;;;;2.60;2.40;;;;;;;-141.48;100.00;69781.59;4974875;29;20049;-83
2022/07/07 12:06:27;;;;;;;2.13;1.92;;;;;;;-141.48;100.00;69781.59;4976189;29;20035;-84
2022/07/07 12:09:02;;;;;;;1.98;1.98;;;;;;;-141.48;100.00;69781.59;4975344;29;20030;-84
2022/07/07 12:11:38;;;;;;;3.63;2.20;;;;;;;-141.48;100.00;69781.59;4976793;29;20090;-84
2022/07/07 12:14:10;;;;;;;7.85;2.78;;;;;;;-141.48;100.00;69781.59;4986856;29;20049;-81
2022/07/07 12:16:52;;;;;;;2.50;2.08;;;;;;;-141.48;100.00;69781.59;4990293;29;20042;-83
2022/07/07 12:19:22;;;;;;;3.03;2.83;;;;;;;-141.48;100.00;69781.59;4989003;29;20030;-82
2022/07/07 12:21:53;;;;;;;5.20;2.25;;;;;;;-141.48;100.00;69781.59;4989685;29;20046;-82
2022/07/07 12:24:24;;;;;;;3.35;2.50;;;;;;;-141.48;100.00;69781.59;4989523;29;20031;-82
2022/07/07 12:26:55;;;;;;;4.35;2.42;;;;;;;-141.48;100.00;69781.59;4989838;29;20043;-82
2022/07/07 12:29:25;;;;;;;2.25;2.15;;;;;;;-141.48;100.00;69781.59;4986132;29;20049;-85
2022/07/07 12:31:55;;;;;;;2.63;2.47;;;;;;;-141.48;100.00;69781.59;4977738;29;20165;-86
2022/07/07 12:34:26;;;;;;;2.40;2.30;;;;;;;-141.48;100.00;69781.59;4975834;29;20034;-81
2022/07/07 12:36:57;;;;;;;5.70;2.40;;;;;;;-141.48;100.00;69781.59;4982557;29;20026;-81
2022/07/07 12:39:27;;;;;;;2.97;2.78;;;;;;;-141.48;100.00;69781.59;4990638;29;20438;-82
2022/07/07 12:41:58;;;;;;;3.33;2.30;;;;;;;-141.48;100.00;69781.59;4992066;29;20057;-81
2022/07/07 12:44:32;;;;;;;9.05;3.03;;;;;;;-141.48;100.00;69781.59;4992676;29;20042;-78
2022/07/07 12:47:02;;;;;;;5.35;2.53;;;;;;;-141.48;100.00;69781.59;4993009;29;20583;-82
2022/07/07 12:49:33;;;;;;;3.20;3.00;;;;;;;-141.48;100.00;69781.59;4975914;29;20068;-77
2022/07/07 12:52:11;;;;;;;6.60;2.40;;;;;;;-141.48;100.00;69781.59;4975636;29;20038;-80
2022/07/07 12:54:42;;;;;;;2.05;1.95;;;;;;;-141.48;100.00;69781.59;4991970;29;20114;-79
2022/07/07 12:57:14;;;;;;;2.35;2.25;;;;;;;-141.48;100.00;69781.59;4992468;29;20327;-81
2022/07/07 12:59:45;;;;;;;4.25;2.85;;;;;;;-141.48;100.00;69781.59;4992152;29;20461;-81
2022/07/07 13:02:15;;;;;;;2.22;2.13;;;;;;;-141.48;100.00;69781.59;4991773;29;20244;-81
2022/07/07 13:04:46;;;;;;;2.08;1.98;;;;;;;-141.48;100.00;69781.59;4991829;29;20042;-78
2022/07/07 13:07:16;;;;;;;3.92;2.33;;;;;;;-141.48;100.00;69781.59;4991428;29;20071;-81
2022/07/07 13:09:47;;;;;;;6.63;1.98;;;;;;;-141.48;100.00;69781.59;4991779;29;20049;-81
2022/07/07 13:12:17;;;;;;;3.10;2.90;;;;;;;-141.48;100.00;69781.59;4976786;29;20112;-81
2022/07/07 13:14:48;;;;;;;7.50;2.45;;;;;;;-141.48;100.00;69781.59;4975690;29;20106;-81
2022/07/07 13:17:18;;;;;;;2.65;2.53;;;;;;;-141.48;100.00;69781.59;4976335;29;20052;-81
2022/07/07 13:19:50;;;;;;;3.15;2.67;;;;;;;-141.48;100.00;69781.59;4970745;29;20031;-81
2022/07/07 13:22:21;;;;;;;6.18;2.50;;;;;;;-141.48;100.00;69781.59;4972401;29;20482;-81
2022/07/07 13:24:51;;;;;;;2.58;2.47;;;;;;;-141.48;100.00;69781.59;4962607;29;20034;-82
2022/07/07 13:27:21;;;;;;;3.05;2.85;;;;;;;-141.48;100.00;69781.59;4962587;29;20444;-83
2022/07/07 13:29:52;;;;;;;4.18;2.45;;;;;;;-141.48;100.00;69781.59;4958859;29;20042;-83
2022/07/07 13:32:22;;;;;;;2.50;2.40;;;;;;;-141.48;100.00;69781.59;4978202;29;20031;-81
2022/07/07 13:34:53;;;;;;;2.72;2.55;;;;;;;-141.48;100.00;69781.59;4983125;29;20084;-83
2022/07/07 13:37:23;;;;;;;2.90;2.80;;;;;;;-141.48;100.00;69781.59;4983439;29;20075;-81
2022/07/07 13:39:54;;;;;;;2.13;2.00;;;;;;;-141.48;100.00;69781.59;4979631;29;20033;-80
2022/07/07 13:42:24;;;;;;;2.63;2.53;;;;;;;-141.48;100.00;69781.59;4960087;29;20027;-79
2022/07/07 13:44:54;;;;;;;2.72;2.53;;;;;;;-141.48;100.00;69781.59;4975429;29;20058;-78
2022/07/07 13:47:25;;;;;;;4.65;2.90;;;;;;;-141.48;100.00;69781.59;4977333;29;20058;-80